createdAt,value
2019-05-03T00:00:16.584Z,88.90
2019-05-03T00:02:54.432Z,89.50
2019-05-03T00:05:33.165Z,89.20
2019-05-03T00:08:05.726Z,88.70
2019-05-03T00:10:37.645Z,89.30
2019-05-03T00:13:07.917Z,89.60
2019-05-03T00:15:52.529Z,89.70
2019-05-03T00:18:22.266Z,90.10
2019-05-03T00:20:52.734Z,90.30
2019-05-03T00:23:22.968Z,89.90
2019-05-03T00:25:52.869Z,90.40
2019-05-03T00:28:22.575Z,89.60
2019-05-03T00:30:52.280Z,89.50
2019-05-03T00:33:22.440Z,90.10
2019-05-03T00:36:22.113Z,90.20
2019-05-03T00:38:53.463Z,90.00
2019-05-03T00:41:23.185Z,89.50
2019-05-03T00:43:52.853Z,89.50
2019-05-03T00:46:22.537Z,90.20
2019-05-03T00:48:52.560Z,89.70
2019-05-03T00:51:22.622Z,89.60
2019-05-03T00:53:53.245Z,88.70
2019-05-03T00:56:23.064Z,89.40
2019-05-03T00:58:58.517Z,89.60
2019-05-03T01:01:28.281Z,88.80
2019-05-03T01:03:58.038Z,89.80
2019-05-03T01:06:27.688Z,89.90
2019-05-03T01:08:57.488Z,89.80
2019-05-03T01:11:27.166Z,89.90
2019-05-03T01:13:56.897Z,90.00
2019-05-03T01:16:26.602Z,89.70
2019-05-03T01:18:58.149Z,90.20
2019-05-03T01:21:27.796Z,89.80
2019-05-03T01:23:57.568Z,89.50
2019-05-03T01:26:27.229Z,90.20
2019-05-03T01:28:56.944Z,90.00
2019-05-03T01:31:26.615Z,89.80
2019-05-03T01:33:56.296Z,89.80
2019-05-03T01:36:25.995Z,89.40
2019-05-03T01:38:55.669Z,88.70
2019-05-03T01:41:25.397Z,89.10
2019-05-03T01:43:55.121Z,88.40
2019-05-03T01:46:24.818Z,89.30
2019-05-03T01:49:12.367Z,90.00
2019-05-03T01:52:13.217Z,90.00
2019-05-03T01:54:42.963Z,90.50
2019-05-03T01:57:12.661Z,90.40
2019-05-03T01:59:42.659Z,90.50
2019-05-03T02:02:25.875Z,90.30
2019-05-03T02:05:14.473Z,90.10
2019-05-03T02:07:44.142Z,90.30
2019-05-03T02:10:14.105Z,89.70
2019-05-03T02:12:43.765Z,89.90
2019-05-03T02:15:13.474Z,90.00
2019-05-03T02:17:43.126Z,89.60
2019-05-03T02:20:12.944Z,89.80
2019-05-03T02:22:42.875Z,89.50
2019-05-03T02:25:12.879Z,89.40
2019-05-03T02:27:42.554Z,88.60
2019-05-03T02:30:14.536Z,88.50
2019-05-03T02:32:44.506Z,88.80
2019-05-03T02:35:14.543Z,89.00
2019-05-03T02:37:46.600Z,89.60
2019-05-03T02:40:18.662Z,89.00
2019-05-03T02:43:06.644Z,89.40
2019-05-03T02:45:45.676Z,88.70
2019-05-03T02:48:25.574Z,89.00
2019-05-03T02:50:56.049Z,89.00
2019-05-03T02:53:26.372Z,89.70
2019-05-03T02:56:01.303Z,89.40
2019-05-03T02:58:27.427Z,89.50
2019-05-03T03:04:28.889Z,88.70
2019-05-03T03:06:59.902Z,89.20
2019-05-03T03:09:30.166Z,89.80
2019-05-03T03:12:01.538Z,90.10
2019-05-03T03:14:36.023Z,90.20
2019-05-03T03:17:06.906Z,89.20
2019-05-03T03:19:38.700Z,90.00
2019-05-03T03:22:11.192Z,89.90
2019-05-03T03:24:45.837Z,89.70
2019-05-03T03:27:19.013Z,89.60
2019-05-03T03:29:55.260Z,89.30
2019-05-03T03:32:38.057Z,89.20
2019-05-03T03:35:20.340Z,88.10
2019-05-03T03:37:46.346Z,88.60
2019-05-03T03:40:18.854Z,89.00
2019-05-03T03:42:51.150Z,88.80
2019-05-03T03:45:20.883Z,88.50
2019-05-03T03:47:56.188Z,88.90
2019-05-03T03:50:27.253Z,88.00
2019-05-03T03:52:58.851Z,87.60
2019-05-03T03:55:31.556Z,87.80
2019-05-03T03:58:01.519Z,87.60
2019-05-03T04:00:31.395Z,87.00
2019-05-03T04:03:02.117Z,87.60
2019-05-03T04:05:32.025Z,88.40
2019-05-03T04:08:02.174Z,88.70
2019-05-03T04:10:31.982Z,88.90
2019-05-03T04:13:05.260Z,88.50
2019-05-03T04:15:41.402Z,88.90
2019-05-03T04:18:29.824Z,89.30
2019-05-03T04:20:59.671Z,88.80
2019-05-03T04:23:31.928Z,88.30
2019-05-03T04:26:02.688Z,89.40
2019-05-03T04:28:36.153Z,89.00
2019-05-03T04:31:06.233Z,89.40
2019-05-03T04:33:36.150Z,89.40
2019-05-03T04:36:06.005Z,89.60
2019-05-03T04:38:35.817Z,90.00
2019-05-03T04:41:06.148Z,90.00
2019-05-03T04:43:36.012Z,90.00
2019-05-03T04:46:19.606Z,90.00
2019-05-03T04:48:49.271Z,90.30
2019-05-03T04:51:19.001Z,90.00
2019-05-03T04:53:57.699Z,90.10
2019-05-03T04:56:27.392Z,90.10
2019-05-03T04:58:57.107Z,90.00
2019-05-03T05:01:26.789Z,90.50
2019-05-03T05:03:56.516Z,90.50
2019-05-03T05:06:26.259Z,90.20
2019-05-03T05:08:55.990Z,90.10
2019-05-03T05:11:26.267Z,90.50
2019-05-03T05:13:56.286Z,90.30
2019-05-03T05:16:25.976Z,90.40
2019-05-03T05:18:59.891Z,90.30
2019-05-03T05:21:44.705Z,90.80
2019-05-03T05:24:15.145Z,90.60
2019-05-03T05:27:00.197Z,90.30
2019-05-03T05:29:31.647Z,90.40
2019-05-03T05:32:01.382Z,90.40
2019-05-03T05:34:31.125Z,90.30
2019-05-03T05:37:00.841Z,90.50
2019-05-03T05:39:30.496Z,90.90
2019-05-03T05:42:00.284Z,90.50
2019-05-03T05:44:30.078Z,90.30
2019-05-03T05:47:18.728Z,90.50
2019-05-03T05:50:01.543Z,90.50
2019-05-03T05:52:31.229Z,90.60
2019-05-03T05:55:28.941Z,90.80
2019-05-03T05:58:12.460Z,91.10
2019-05-03T06:01:07.172Z,90.90
2019-05-03T06:03:36.884Z,91.40
2019-05-03T06:06:08.784Z,91.20
2019-05-03T06:09:00.565Z,91.60
2019-05-03T06:11:41.505Z,91.30
2019-05-03T06:14:30.210Z,90.90
2019-05-03T06:17:14.519Z,90.90
2019-05-03T06:19:51.472Z,91.10
2019-05-03T06:22:46.199Z,90.80
2019-05-03T06:25:35.219Z,91.00
2019-05-03T06:28:17.437Z,91.40
2019-05-03T06:31:00.412Z,91.00
2019-05-03T06:33:30.171Z,90.90
2019-05-03T06:35:59.876Z,91.20
2019-05-03T06:38:29.552Z,91.10
2019-05-03T06:40:59.384Z,90.80
2019-05-03T06:43:29.064Z,91.00
2019-05-03T06:45:58.766Z,91.10
2019-05-03T06:48:32.014Z,90.90
2019-05-03T06:51:00.302Z,91.20
2019-05-03T06:53:31.383Z,91.20
2019-05-03T06:56:01.114Z,91.30
2019-05-03T06:58:33.742Z,90.90
2019-05-03T07:01:14.779Z,90.90
2019-05-03T07:03:55.123Z,91.50
2019-05-03T07:06:39.458Z,91.30
2019-05-03T07:09:30.228Z,91.20
2019-05-03T07:11:59.954Z,91.20
2019-05-03T07:14:29.901Z,90.80
2019-05-03T07:16:59.598Z,91.10
2019-05-03T07:19:29.288Z,91.30
2019-05-03T07:21:58.982Z,91.20
2019-05-03T07:24:28.689Z,91.50
2019-05-03T07:26:59.146Z,91.10
2019-05-03T07:29:29.033Z,90.70
2019-05-03T07:31:58.676Z,91.20
2019-05-03T07:34:28.366Z,90.60
2019-05-03T07:36:58.042Z,91.30
2019-05-03T07:39:27.757Z,91.60
2019-05-03T07:41:57.504Z,91.60
2019-05-03T07:44:27.210Z,91.50
2019-05-03T07:46:56.870Z,92.10
2019-05-03T07:49:26.717Z,91.70
2019-05-03T07:51:56.433Z,91.50
2019-05-03T07:54:26.151Z,91.60
2019-05-03T07:57:00.883Z,91.80
2019-05-03T07:59:30.632Z,92.00
2019-05-03T08:02:00.374Z,92.20
2019-05-03T08:04:30.221Z,92.10
2019-05-03T08:06:59.905Z,92.30
2019-05-03T08:09:29.662Z,92.60
2019-05-03T08:11:59.389Z,92.40
2019-05-03T08:14:29.104Z,92.60
2019-05-03T08:16:58.864Z,92.90
2019-05-03T08:19:28.654Z,92.70
2019-05-03T08:21:58.394Z,92.50
2019-05-03T08:24:28.135Z,92.60
2019-05-03T08:26:57.914Z,92.90
2019-05-03T08:29:27.632Z,92.60
2019-05-03T08:32:15.440Z,92.20
2019-05-03T08:35:04.694Z,92.30
2019-05-03T08:37:54.931Z,92.00
2019-05-03T08:40:26.427Z,91.50
2019-05-03T08:42:56.193Z,91.10
2019-05-03T08:45:25.956Z,91.20
2019-05-03T08:47:55.814Z,90.90
2019-05-03T08:50:25.794Z,90.50
2019-05-03T08:52:55.975Z,90.80
2019-05-03T08:55:25.811Z,91.10
2019-05-03T08:57:55.530Z,91.10
2019-05-03T09:00:27.504Z,91.60
2019-05-03T09:02:57.313Z,90.60
2019-05-03T09:05:27.110Z,90.40
2019-05-03T09:07:56.969Z,90.30
2019-05-03T09:10:46.080Z,90.60
2019-05-03T09:13:17.905Z,91.00
2019-05-03T09:15:47.821Z,90.50
2019-05-03T09:18:17.765Z,90.20
2019-05-03T09:20:47.422Z,91.00
2019-05-03T09:23:17.689Z,89.60
2019-05-03T09:25:47.538Z,90.50
2019-05-03T09:28:17.427Z,90.40
2019-05-03T09:30:47.279Z,90.80
2019-05-03T09:33:17.061Z,90.50
2019-05-03T09:35:46.783Z,89.70
2019-05-03T09:38:16.606Z,89.50
2019-05-03T09:40:46.405Z,90.00
2019-05-03T09:43:17.632Z,89.20
2019-05-03T09:45:47.475Z,88.90
2019-05-03T09:48:17.222Z,90.00
2019-05-03T09:50:47.093Z,90.30
2019-05-03T09:53:18.376Z,90.30
2019-05-03T09:55:48.116Z,89.40
2019-05-03T09:58:17.935Z,90.00
2019-05-03T10:00:49.021Z,89.60
2019-05-03T10:03:18.809Z,89.30
2019-05-03T10:05:48.529Z,90.20
2019-05-03T10:08:18.356Z,90.10
2019-05-03T10:11:05.907Z,90.70
2019-05-03T10:13:35.903Z,90.20
2019-05-03T10:16:06.318Z,89.20
2019-05-03T10:18:36.328Z,89.50
2019-05-03T10:21:06.485Z,89.50
2019-05-03T10:23:45.165Z,89.40
2019-05-03T10:26:15.309Z,87.80
2019-05-03T10:28:45.168Z,87.80
2019-05-03T10:31:14.871Z,88.90
2019-05-03T10:34:02.316Z,87.10
2019-05-03T10:36:32.088Z,90.00
2019-05-03T10:39:01.953Z,88.50
2019-05-03T10:41:31.716Z,85.20
2019-05-03T10:44:01.466Z,87.20
2019-05-03T10:46:31.197Z,86.70
2019-05-03T10:49:00.952Z,84.00
2019-05-03T10:51:33.073Z,85.20
2019-05-03T10:54:05.086Z,83.00
2019-05-03T10:57:06.544Z,87.40
2019-05-03T10:59:36.319Z,87.70
2019-05-03T11:02:25.394Z,84.90
2019-05-03T11:04:55.173Z,86.30
2019-05-03T11:07:25.683Z,86.40
2019-05-03T11:09:55.548Z,86.70
2019-05-03T11:12:25.524Z,86.40
2019-05-03T11:14:55.342Z,87.30
2019-05-03T11:17:25.632Z,88.60
2019-05-03T11:19:55.505Z,89.10
2019-05-03T11:22:25.407Z,90.50
2019-05-03T11:24:55.079Z,90.50
2019-05-03T11:27:30.395Z,86.90
2019-05-03T11:30:00.212Z,87.50
2019-05-03T11:32:41.388Z,87.40
2019-05-03T11:35:29.226Z,88.10
2019-05-03T11:38:15.417Z,88.70
2019-05-03T11:40:45.508Z,90.20
2019-05-03T11:43:16.406Z,90.10
2019-05-03T11:45:46.092Z,89.10
2019-05-03T11:48:15.855Z,90.40
2019-05-03T11:50:46.697Z,90.90
2019-05-03T11:53:16.490Z,90.50
2019-05-03T11:55:46.598Z,90.00
2019-05-03T11:58:22.837Z,89.20
2019-05-03T12:01:12.952Z,89.70
2019-05-03T12:03:41.626Z,90.10
2019-05-03T12:09:45.168Z,88.80
2019-05-03T12:12:29.396Z,90.00
2019-05-03T12:14:58.506Z,90.00
2019-05-03T12:17:30.592Z,90.70
2019-05-03T12:20:02.047Z,89.60
2019-05-03T12:22:32.558Z,90.00
2019-05-03T12:25:09.339Z,88.90
2019-05-03T12:27:35.006Z,87.80
2019-05-03T12:30:05.178Z,87.00
2019-05-03T12:32:34.869Z,88.20
2019-05-03T12:35:06.100Z,88.70
2019-05-03T12:37:36.018Z,89.80
2019-05-03T12:40:05.839Z,89.60
2019-05-03T12:42:35.697Z,90.20
2019-05-03T12:45:05.777Z,89.80
2019-05-03T12:47:35.477Z,90.80
2019-05-03T12:50:05.538Z,90.20
2019-05-03T12:52:43.505Z,86.60
2019-05-03T12:55:06.808Z,84.50
2019-05-03T12:57:36.537Z,88.00
2019-05-03T13:00:48.207Z,87.20
2019-05-03T13:03:37.510Z,85.60
2019-05-03T13:06:07.539Z,87.70
2019-05-03T13:08:45.628Z,88.70
2019-05-03T13:11:15.136Z,81.60
2019-05-03T13:13:45.332Z,83.20
2019-05-03T13:16:18.636Z,83.10
2019-05-03T13:18:48.427Z,85.20
2019-05-03T13:21:18.157Z,85.70
2019-05-03T13:23:47.774Z,79.90
2019-05-03T13:26:17.416Z,79.90
2019-05-03T13:28:47.131Z,78.20
2019-05-03T13:31:16.762Z,82.20
2019-05-03T13:33:46.513Z,81.00
2019-05-03T13:36:16.203Z,79.90
2019-05-03T13:38:45.896Z,77.20
2019-05-03T13:41:15.527Z,78.50
2019-05-03T13:43:45.524Z,79.60
2019-05-03T13:46:15.746Z,80.20
2019-05-03T13:48:48.948Z,81.40
2019-05-03T13:51:17.179Z,83.70
2019-05-03T13:53:46.818Z,83.40
2019-05-03T13:56:16.531Z,85.50
2019-05-03T13:58:46.171Z,85.60
2019-05-03T14:01:15.888Z,88.50
2019-05-03T14:04:06.491Z,85.10
2019-05-03T14:06:36.702Z,85.10
2019-05-03T14:09:07.931Z,83.90
2019-05-03T14:11:37.812Z,86.80
2019-05-03T14:14:07.471Z,87.10
2019-05-03T14:16:37.263Z,85.50
2019-05-03T14:19:14.577Z,87.30
2019-05-03T14:21:48.857Z,88.10
2019-05-03T14:24:18.611Z,88.00
2019-05-03T14:26:48.429Z,83.80
2019-05-03T14:29:18.209Z,80.30
2019-05-03T14:31:47.955Z,83.20
2019-05-03T14:34:17.738Z,81.90
2019-05-03T14:36:47.454Z,85.90
2019-05-03T14:39:17.218Z,83.10
2019-05-03T14:41:47.188Z,81.50
2019-05-03T14:44:17.989Z,85.80
2019-05-03T14:46:48.188Z,83.70
2019-05-03T14:49:17.880Z,82.50
2019-05-03T14:51:47.629Z,79.90
2019-05-03T14:54:17.523Z,81.90
2019-05-03T14:56:57.960Z,83.40
2019-05-03T14:59:46.679Z,82.40
2019-05-03T15:02:40.896Z,83.50
2019-05-03T15:05:05.389Z,85.80
2019-05-03T15:07:35.208Z,83.20
2019-05-03T15:10:05.641Z,83.60
2019-05-03T15:12:36.066Z,83.60
2019-05-03T15:15:06.638Z,85.20
2019-05-03T15:17:36.355Z,85.60
2019-05-03T15:20:10.209Z,85.60
2019-05-03T15:22:45.287Z,84.00
2019-05-03T15:25:24.979Z,85.30
2019-05-03T15:27:55.437Z,85.20
2019-05-03T15:30:25.578Z,84.70
2019-05-03T15:33:00.528Z,84.70
2019-05-03T15:35:26.813Z,84.70
2019-05-03T15:37:56.705Z,86.30
2019-05-03T15:40:26.464Z,86.50
2019-05-03T15:43:05.564Z,86.10
2019-05-03T15:46:05.216Z,86.20
2019-05-03T15:48:43.346Z,85.10
2019-05-03T15:51:14.996Z,85.00
2019-05-03T15:53:44.487Z,82.40
2019-05-03T15:56:14.730Z,82.50
2019-05-03T15:58:46.828Z,82.20
2019-05-03T16:01:15.888Z,80.60
2019-05-03T16:03:45.610Z,81.00
2019-05-03T16:06:15.684Z,79.90
2019-05-03T16:08:45.557Z,80.00
2019-05-03T16:11:15.428Z,80.50
2019-05-03T16:13:45.214Z,79.70
2019-05-03T16:16:15.299Z,79.90
2019-05-03T16:18:45.077Z,79.90
2019-05-03T16:21:14.885Z,81.30
2019-05-03T16:23:46.613Z,81.90
2019-05-03T16:26:15.936Z,81.20
2019-05-03T16:28:50.612Z,81.30
2019-05-03T16:31:22.099Z,80.50
2019-05-03T16:34:06.909Z,79.80
2019-05-03T16:36:36.910Z,79.50
2019-05-03T16:39:08.102Z,78.90
2019-05-03T16:41:44.709Z,77.90
2019-05-03T16:44:16.444Z,77.80
2019-05-03T16:46:46.033Z,77.80
2019-05-03T16:49:15.844Z,76.70
2019-05-03T16:51:46.071Z,77.60
2019-05-03T16:54:16.474Z,78.40
2019-05-03T16:56:46.349Z,76.10
2019-05-03T16:59:17.404Z,76.50
2019-05-03T17:01:47.405Z,77.30
2019-05-03T17:04:34.640Z,78.60
2019-05-03T17:07:12.284Z,78.60
2019-05-03T17:09:51.067Z,78.60
2019-05-03T17:12:26.765Z,78.90
2019-05-03T17:14:57.024Z,79.20
2019-05-03T17:17:26.970Z,80.10
2019-05-03T17:20:00.022Z,81.80
2019-05-03T17:22:29.780Z,82.90
2019-05-03T17:24:59.538Z,82.80
2019-05-03T17:27:29.261Z,83.00
2019-05-03T17:29:58.969Z,82.70
2019-05-03T17:32:28.808Z,83.30
2019-05-03T17:34:58.603Z,83.30
2019-05-03T17:37:28.339Z,83.20
2019-05-03T17:40:26.271Z,82.80
2019-05-03T17:43:15.723Z,83.60
2019-05-03T17:45:51.288Z,83.30
2019-05-03T17:48:21.092Z,83.80
2019-05-03T17:50:50.831Z,83.70
2019-05-03T17:53:42.239Z,83.70
2019-05-03T17:56:25.648Z,83.30
2019-05-03T17:59:17.311Z,83.60
2019-05-03T18:02:24.220Z,83.60
2019-05-03T18:05:16.001Z,84.70
2019-05-03T18:08:04.689Z,83.90
2019-05-03T18:10:35.526Z,85.40
2019-05-03T18:13:05.252Z,84.80
2019-05-03T18:15:35.043Z,85.20
2019-05-03T18:18:05.936Z,85.70
2019-05-03T18:20:35.758Z,86.00
2019-05-03T18:23:05.707Z,85.80
2019-05-03T18:25:38.464Z,85.50
2019-05-03T18:28:07.949Z,85.40
2019-05-03T18:30:37.725Z,86.20
2019-05-03T18:33:07.572Z,86.00
2019-05-03T18:35:37.341Z,86.00
2019-05-03T18:38:07.098Z,85.60
2019-05-03T18:40:37.026Z,85.60
2019-05-03T18:43:11.626Z,85.30
2019-05-03T18:45:59.202Z,86.00
2019-05-03T18:48:28.960Z,84.90
2019-05-03T18:50:58.802Z,85.50
2019-05-03T18:53:28.512Z,85.30
2019-05-03T18:55:58.262Z,85.30
2019-05-03T18:58:28.229Z,85.10
2019-05-03T19:00:58.029Z,84.70
2019-05-03T19:03:27.770Z,85.40
2019-05-03T19:06:00.335Z,85.70
2019-05-03T19:08:58.196Z,86.00
2019-05-03T19:11:35.510Z,86.00
2019-05-03T19:14:07.296Z,86.10
2019-05-03T19:17:02.229Z,85.70
2019-05-03T19:19:35.367Z,86.30
2019-05-03T19:22:05.472Z,85.40
2019-05-03T19:24:35.253Z,85.90
2019-05-03T19:27:07.160Z,85.00
2019-05-03T19:29:37.362Z,85.50
2019-05-03T19:32:07.226Z,84.80
2019-05-03T19:34:47.849Z,85.30
2019-05-03T19:37:08.490Z,85.10
2019-05-03T19:39:38.376Z,85.90
2019-05-03T19:42:08.122Z,86.10
2019-05-03T19:44:38.063Z,85.30
2019-05-03T19:47:07.940Z,85.40
2019-05-03T19:49:37.635Z,85.50
2019-05-03T19:52:07.492Z,85.20
2019-05-03T19:54:37.237Z,85.70
2019-05-03T19:57:06.966Z,85.70
2019-05-03T19:59:56.860Z,85.90
2019-05-03T20:02:48.554Z,85.40
2019-05-03T20:05:44.895Z,86.20
2019-05-03T20:08:20.805Z,86.90
2019-05-03T20:10:52.195Z,87.80
2019-05-03T20:13:31.921Z,87.10
2019-05-03T20:15:55.086Z,87.60
2019-05-03T20:18:24.766Z,87.10
2019-05-03T20:20:55.301Z,87.60
2019-05-03T20:23:25.319Z,88.20
2019-05-03T20:25:55.023Z,88.60
2019-05-03T20:28:24.904Z,88.60
2019-05-03T20:30:54.683Z,89.30
2019-05-03T20:33:24.735Z,89.00
2019-05-03T20:35:56.247Z,88.70
2019-05-03T20:38:26.087Z,88.30
2019-05-03T20:40:57.402Z,88.20
2019-05-03T20:43:55.366Z,88.50
2019-05-03T20:46:29.941Z,87.80
2019-05-03T20:49:04.343Z,87.40
2019-05-03T20:51:34.583Z,86.90
2019-05-03T20:54:04.963Z,86.90
2019-05-03T20:56:34.910Z,86.80
2019-05-03T20:59:05.476Z,86.40
2019-05-03T21:01:35.245Z,86.70
2019-05-03T21:04:05.047Z,86.70
2019-05-03T21:06:35.991Z,86.60
2019-05-03T21:09:07.775Z,87.10
2019-05-03T21:11:37.495Z,86.70
2019-05-03T21:14:07.381Z,87.40
2019-05-03T21:16:58.951Z,86.90
2019-05-03T21:19:46.803Z,87.90
2019-05-03T21:22:25.935Z,87.60
2019-05-03T21:25:01.583Z,87.60
2019-05-03T21:27:31.418Z,86.80
2019-05-03T21:30:01.124Z,86.90
2019-05-03T21:32:30.934Z,86.30
2019-05-03T21:35:00.678Z,87.00
2019-05-03T21:37:30.445Z,86.60
2019-05-03T21:40:00.129Z,86.00
2019-05-03T21:42:29.985Z,85.10
2019-05-03T21:44:59.685Z,85.00
2019-05-03T21:47:48.297Z,84.50
2019-05-03T21:50:19.239Z,84.00
2019-05-03T21:52:48.996Z,85.60
2019-05-03T21:55:18.760Z,86.00
2019-05-03T21:57:48.531Z,85.80
2019-05-03T22:00:18.561Z,86.20
2019-05-03T22:02:48.272Z,87.10
2019-05-03T22:05:18.044Z,86.40
2019-05-03T22:07:47.792Z,86.30
2019-05-03T22:10:17.731Z,86.70
2019-05-03T22:12:47.455Z,86.10
2019-05-03T22:15:26.431Z,86.30
2019-05-03T22:18:15.142Z,86.40
2019-05-03T22:21:21.848Z,86.20
2019-05-03T22:24:22.556Z,86.70
2019-05-03T22:26:55.374Z,87.10
2019-05-03T22:29:25.608Z,87.30
2019-05-03T22:31:55.536Z,87.30
2019-05-03T22:34:25.848Z,87.70
2019-05-03T22:36:55.905Z,87.20
2019-05-03T22:39:25.699Z,87.20
2019-05-03T22:41:55.456Z,87.60
2019-05-03T22:44:25.499Z,87.40
2019-05-03T22:46:55.388Z,87.30
2019-05-03T22:49:26.073Z,87.70
2019-05-03T22:51:56.089Z,87.20
2019-05-03T22:54:25.786Z,87.80
2019-05-03T22:56:55.719Z,87.60
2019-05-03T22:59:25.501Z,87.50
2019-05-03T23:01:55.438Z,87.60
2019-05-03T23:04:25.512Z,87.60
2019-05-03T23:06:55.755Z,87.70
2019-05-03T23:09:25.623Z,87.40
2019-05-03T23:11:55.484Z,87.20
2019-05-03T23:14:25.722Z,87.30
2019-05-03T23:16:55.561Z,87.10
2019-05-03T23:19:25.321Z,86.80
2019-05-03T23:22:00.473Z,86.70
2019-05-03T23:24:30.228Z,86.80
2019-05-03T23:27:00.055Z,86.70
2019-05-03T23:29:29.852Z,86.40
2019-05-03T23:31:59.585Z,86.50
2019-05-03T23:34:29.409Z,85.90
2019-05-03T23:36:59.199Z,86.00
2019-05-03T23:39:28.920Z,86.10
2019-05-03T23:41:58.692Z,86.00
2019-05-03T23:44:28.512Z,85.90
2019-05-03T23:47:05.205Z,85.50
2019-05-03T23:49:35.354Z,85.30
2019-05-03T23:52:25.682Z,85.20
2019-05-03T23:54:57.233Z,85.00
2019-05-03T23:57:27.177Z,85.20
2019-05-03T23:59:57.020Z,84.90
